sensor_id;sensor_type;location;lat;lon;timestamp;pressure;altitude;pressure_sealevel;temperature;humidity
78671;BME280;68277;52.724;6.516;2024-02-26T00:01:41;100165.69;;;3.04;100.00
78671;BME280;68277;52.724;6.516;2024-02-26T00:04:09;100185.72;;;3.11;100.00
78671;BME280;68277;52.724;6.516;2024-02-26T00:06:35;100237.03;;;3.42;100.00
78671;BME280;68277;52.724;6.516;2024-02-26T00:09:00;100242.25;;;3.42;100.00
78671;BME280;68277;52.724;6.516;2024-02-26T00:11:28;100185.72;;;3.12;100.00
78671;BME280;68277;52.724;6.516;2024-02-26T00:13:53;100126.56;;;2.76;100.00
78671;BME280;68277;52.724;6.516;2024-02-26T00:16:22;100193.56;;;3.15;100.00
78671;BME280;68277;52.724;6.516;2024-02-26T00:18:47;100132.66;;;2.74;100.00
78671;BME280;68277;52.724;6.516;2024-02-26T00:21:14;100226.66;;;3.22;100.00
78671;BME280;68277;52.724;6.516;2024-02-26T00:23:40;100244.94;;;3.31;100.00
78671;BME280;68277;52.724;6.516;2024-02-26T00:26:05;100178.78;;;2.89;100.00
78671;BME280;68277;52.724;6.516;2024-02-26T00:28:31;100165.75;;;2.87;100.00
78671;BME280;68277;52.724;6.516;2024-02-26T00:30:57;100172.72;;;2.90;100.00
78671;BME280;68277;52.724;6.516;2024-02-26T00:33:22;100236.22;;;3.26;100.00
78671;BME280;68277;52.724;6.516;2024-02-26T00:35:48;100189.22;;;2.99;100.00
78671;BME280;68277;52.724;6.516;2024-02-26T00:38:14;100213.59;;;3.15;100.00
78671;BME280;68277;52.724;6.516;2024-02-26T00:40:40;100203.16;;;3.06;100.00
78671;BME280;68277;52.724;6.516;2024-02-26T00:43:08;100209.25;;;3.03;100.00
78671;BME280;68277;52.724;6.516;2024-02-26T00:45:34;100193.59;;;2.94;100.00
78671;BME280;68277;52.724;6.516;2024-02-26T00:48:00;100247.56;;;3.22;100.00
78671;BME280;68277;52.724;6.516;2024-02-26T00:50:35;100200.56;;;2.95;100.00
78671;BME280;68277;52.724;6.516;2024-02-26T00:53:01;100221.44;;;3.03;100.00
78671;BME280;68277;52.724;6.516;2024-02-26T00:55:27;100212.75;;;2.95;100.00
78671;BME280;68277;52.724;6.516;2024-02-26T00:57:52;100231.03;;;3.08;100.00
78671;BME280;68277;52.724;6.516;2024-02-26T01:00:19;100230.16;;;3.11;100.00
78671;BME280;68277;52.724;6.516;2024-02-26T01:02:44;100234.53;;;3.03;100.00
78671;BME280;68277;52.724;6.516;2024-02-26T01:05:13;100260.63;;;3.21;100.00
78671;BME280;68277;52.724;6.516;2024-02-26T01:07:39;100248.44;;;3.12;100.00
78671;BME280;68277;52.724;6.516;2024-02-26T01:10:06;100207.53;;;2.89;100.00
78671;BME280;68277;52.724;6.516;2024-02-26T01:12:32;100225.81;;;2.99;100.00
78671;BME280;68277;52.724;6.516;2024-02-26T01:14:58;100224.06;;;3.00;100.00
78671;BME280;68277;52.724;6.516;2024-02-26T01:17:23;100209.28;;;2.96;100.00
78671;BME280;68277;52.724;6.516;2024-02-26T01:19:49;100219.72;;;3.00;100.00
78671;BME280;68277;52.724;6.516;2024-02-26T01:22:14;100215.34;;;3.07;100.00
78671;BME280;68277;52.724;6.516;2024-02-26T01:24:40;100235.38;;;3.17;100.00
78671;BME280;68277;52.724;6.516;2024-02-26T01:27:09;100213.63;;;3.06;100.00
78671;BME280;68277;52.724;6.516;2024-02-26T01:29:34;100218.81;;;3.12;100.00
78671;BME280;68277;52.724;6.516;2024-02-26T01:32:00;100244.06;;;3.26;100.00
78671;BME280;68277;52.724;6.516;2024-02-26T01:34:25;100217.97;;;3.08;100.00
78671;BME280;68277;52.724;6.516;2024-02-26T01:36:51;100252.75;;;3.37;100.00
78671;BME280;68277;52.724;6.516;2024-02-26T01:39:16;100137.03;;;2.66;100.00
78671;BME280;68277;52.724;6.516;2024-02-26T01:41:42;100258.00;;;3.39;100.00
78671;BME280;68277;52.724;6.516;2024-02-26T01:44:11;100176.19;;;2.89;100.00
78671;BME280;68277;52.724;6.516;2024-02-26T01:46:37;100180.50;;;2.97;100.00
78671;BME280;68277;52.724;6.516;2024-02-26T01:49:07;100234.50;;;3.19;100.00
78671;BME280;68277;52.724;6.516;2024-02-26T01:51:35;100255.38;;;3.33;100.00
78671;BME280;68277;52.724;6.516;2024-02-26T01:54:01;100270.19;;;3.38;100.00
78671;BME280;68277;52.724;6.516;2024-02-26T01:56:29;100265.84;;;3.39;100.00
78671;BME280;68277;52.724;6.516;2024-02-26T01:59:01;100238.84;;;3.22;100.00
78671;BME280;68277;52.724;6.516;2024-02-26T02:01:29;100230.13;;;3.14;100.00
78671;BME280;68277;52.724;6.516;2024-02-26T02:03:58;100238.00;;;3.11;100.00
78671;BME280;68277;52.724;6.516;2024-02-26T02:06:24;100175.31;;;2.76;100.00
78671;BME280;68277;52.724;6.516;2024-02-26T02:08:50;100128.34;;;2.46;100.00
78671;BME280;68277;52.724;6.516;2024-02-26T02:11:16;100136.19;;;2.50;100.00
78671;BME280;68277;52.724;6.516;2024-02-26T02:13:42;100191.03;;;2.78;100.00
78671;BME280;68277;52.724;6.516;2024-02-26T02:16:08;100196.22;;;2.81;100.00
78671;BME280;68277;52.724;6.516;2024-02-26T02:18:34;100226.69;;;2.95;100.00
78671;BME280;68277;52.724;6.516;2024-02-26T02:21:00;100244.97;;;3.04;100.00
78671;BME280;68277;52.724;6.516;2024-02-26T02:23:26;100199.72;;;2.75;100.00
78671;BME280;68277;52.724;6.516;2024-02-26T02:25:52;100235.38;;;3.02;100.00
78671;BME280;68277;52.724;6.516;2024-02-26T02:28:21;100267.59;;;3.16;100.00
78671;BME280;68277;52.724;6.516;2024-02-26T02:30:48;100219.75;;;2.90;100.00
78671;BME280;68277;52.724;6.516;2024-02-26T02:33:14;100280.69;;;3.19;100.00
78671;BME280;68277;52.724;6.516;2024-02-26T02:35:41;100262.41;;;3.08;100.00
78671;BME280;68277;52.724;6.516;2024-02-26T02:38:07;100251.94;;;2.98;100.00
78671;BME280;68277;52.724;6.516;2024-02-26T02:40:32;100214.50;;;2.76;100.00
78671;BME280;68277;52.724;6.516;2024-02-26T02:42:58;100302.47;;;3.22;100.00
78671;BME280;68277;52.724;6.516;2024-02-26T02:45:25;100151.88;;;2.32;100.00
78671;BME280;68277;52.724;6.516;2024-02-26T02:47:51;100231.97;;;2.75;100.00
78671;BME280;68277;52.724;6.516;2024-02-26T02:50:16;100207.56;;;2.67;100.00
78671;BME280;68277;52.724;6.516;2024-02-26T02:52:42;100227.59;;;2.78;100.00
78671;BME280;68277;52.724;6.516;2024-02-26T02:55:09;100271.09;;;3.04;100.00
78671;BME280;68277;52.724;6.516;2024-02-26T02:57:35;100266.75;;;3.00;100.00
78671;BME280;68277;52.724;6.516;2024-02-26T03:02:46;100274.59;;;3.00;100.00
78671;BME280;68277;52.724;6.516;2024-02-26T03:05:12;100306.81;;;3.16;100.00
78671;BME280;68277;52.724;6.516;2024-02-26T03:07:37;100246.72;;;2.78;100.00
78671;BME280;68277;52.724;6.516;2024-02-26T03:10:03;100294.66;;;3.06;100.00
78671;BME280;68277;52.724;6.516;2024-02-26T03:12:30;100263.28;;;2.91;100.00
78671;BME280;68277;52.724;6.516;2024-02-26T03:14:55;100300.75;;;3.05;100.00
78671;BME280;68277;52.724;6.516;2024-02-26T03:17:21;100291.16;;;2.98;100.00
78671;BME280;68277;52.724;6.516;2024-02-26T03:19:47;100278.97;;;2.88;100.00
78671;BME280;68277;52.724;6.516;2024-02-26T03:22:13;100305.09;;;3.06;100.00
78671;BME280;68277;52.724;6.516;2024-02-26T03:24:38;100312.06;;;3.10;100.00
78671;BME280;68277;52.724;6.516;2024-02-26T03:27:04;100286.81;;;2.91;100.00
78671;BME280;68277;52.724;6.516;2024-02-26T03:29:37;100292.03;;;2.92;100.00
78671;BME280;68277;52.724;6.516;2024-02-26T03:32:04;100291.16;;;2.95;100.00
78671;BME280;68277;52.724;6.516;2024-02-26T03:34:29;100301.63;;;2.98;100.00
78671;BME280;68277;52.724;6.516;2024-02-26T03:36:56;100324.25;;;3.17;100.00
78671;BME280;68277;52.724;6.516;2024-02-26T03:39:22;100278.09;;;2.86;100.00
78671;BME280;68277;52.724;6.516;2024-02-26T03:41:48;100327.72;;;3.16;100.00
78671;BME280;68277;52.724;6.516;2024-02-26T03:44:14;100292.91;;;2.99;100.00
78671;BME280;68277;52.724;6.516;2024-02-26T03:46:39;100303.38;;;2.99;100.00
78671;BME280;68277;52.724;6.516;2024-02-26T03:49:05;100280.72;;;2.81;100.00
78671;BME280;68277;52.724;6.516;2024-02-26T03:51:32;100307.72;;;2.98;100.00
78671;BME280;68277;52.724;6.516;2024-02-26T03:53:58;100329.50;;;2.99;100.00
78671;BME280;68277;52.724;6.516;2024-02-26T03:56:24;100310.31;;;2.86;100.00
78671;BME280;68277;52.724;6.516;2024-02-26T03:58:50;100353.88;;;3.07;100.00
78671;BME280;68277;52.724;6.516;2024-02-26T04:01:16;100321.63;;;2.85;100.00
78671;BME280;68277;52.724;6.516;2024-02-26T04:03:41;100357.38;;;3.09;100.00
78671;BME280;68277;52.724;6.516;2024-02-26T04:06:10;100337.31;;;2.93;100.00
78671;BME280;68277;52.724;6.516;2024-02-26T04:08:37;100350.41;;;2.93;100.00
78671;BME280;68277;52.724;6.516;2024-02-26T04:11:03;100353.88;;;2.95;100.00
78671;BME280;68277;52.724;6.516;2024-02-26T04:13:36;100371.31;;;3.08;100.00
78671;BME280;68277;52.724;6.516;2024-02-26T04:16:06;100330.34;;;2.81;100.00
78671;BME280;68277;52.724;6.516;2024-02-26T04:18:34;100337.31;;;2.88;100.00
78671;BME280;68277;52.724;6.516;2024-02-26T04:20:59;100323.41;;;2.77;100.00
78671;BME280;68277;52.724;6.516;2024-02-26T04:23:25;100293.75;;;2.64;100.00
78671;BME280;68277;52.724;6.516;2024-02-26T04:25:50;100319.91;;;2.81;100.00
78671;BME280;68277;52.724;6.516;2024-02-26T04:28:18;100374.78;;;3.11;100.00
78671;BME280;68277;52.724;6.516;2024-02-26T04:30:47;100361.75;;;3.01;100.00
78671;BME280;68277;52.724;6.516;2024-02-26T04:33:13;100319.03;;;2.74;100.00
78671;BME280;68277;52.724;6.516;2024-02-26T04:35:39;100385.28;;;3.08;100.00
78671;BME280;68277;52.724;6.516;2024-02-26T04:38:04;100384.41;;;3.15;100.00
78671;BME280;68277;52.724;6.516;2024-02-26T04:40:31;100339.09;;;2.89;100.00
78671;BME280;68277;52.724;6.516;2024-02-26T04:42:56;100323.41;;;2.82;100.00
78671;BME280;68277;52.724;6.516;2024-02-26T04:45:22;100354.75;;;2.95;100.00
78671;BME280;68277;52.724;6.516;2024-02-26T04:47:48;100360.84;;;3.05;100.00
78671;BME280;68277;52.724;6.516;2024-02-26T04:50:13;100370.47;;;3.06;100.00
78671;BME280;68277;52.724;6.516;2024-02-26T04:52:39;100397.44;;;3.23;100.00
78671;BME280;68277;52.724;6.516;2024-02-26T04:55:05;100352.16;;;2.98;100.00
78671;BME280;68277;52.724;6.516;2024-02-26T04:57:32;100380.91;;;3.16;100.00
78671;BME280;68277;52.724;6.516;2024-02-26T04:59:58;100402.69;;;3.33;100.00
78671;BME280;68277;52.724;6.516;2024-02-26T05:02:23;100363.47;;;3.09;100.00
78671;BME280;68277;52.724;6.516;2024-02-26T05:04:49;100397.44;;;3.27;100.00
78671;BME280;68277;52.724;6.516;2024-02-26T05:07:15;100369.56;;;3.05;100.00
78671;BME280;68277;52.724;6.516;2024-02-26T05:09:43;100349.53;;;3.07;100.00
78671;BME280;68277;52.724;6.516;2024-02-26T05:12:09;100280.69;;;2.60;100.00
78671;BME280;68277;52.724;6.516;2024-02-26T05:14:35;100418.38;;;3.42;100.00
78671;BME280;68277;52.724;6.516;2024-02-26T05:17:00;100326.00;;;2.91;100.00
78671;BME280;68277;52.724;6.516;2024-02-26T05:19:26;100430.59;;;3.46;100.00
78671;BME280;68277;52.724;6.516;2024-02-26T05:24:42;100402.69;;;3.33;100.00
78671;BME280;68277;52.724;6.516;2024-02-26T05:27:07;100380.91;;;3.25;100.00
78671;BME280;68277;52.724;6.516;2024-02-26T05:29:33;100419.25;;;3.43;100.00
78671;BME280;68277;52.724;6.516;2024-02-26T05:31:58;100432.34;;;3.46;100.00
78671;BME280;68277;52.724;6.516;2024-02-26T05:34:24;100414.03;;;3.38;100.00
78671;BME280;68277;52.724;6.516;2024-02-26T05:36:50;100407.94;;;3.29;100.00
78671;BME280;68277;52.724;6.516;2024-02-26T05:39:16;100418.41;;;3.36;100.00
78671;BME280;68277;52.724;6.516;2024-02-26T05:41:42;100451.50;;;3.50;100.00
78671;BME280;68277;52.724;6.516;2024-02-26T05:44:09;100387.00;;;3.09;100.00
78671;BME280;68277;52.724;6.516;2024-02-26T05:46:35;100431.47;;;3.30;100.00
78671;BME280;68277;52.724;6.516;2024-02-26T05:49:04;100397.47;;;3.09;100.00
78671;BME280;68277;52.724;6.516;2024-02-26T05:51:29;100400.06;;;2.99;100.00
78671;BME280;68277;52.724;6.516;2024-02-26T05:53:55;100457.63;;;3.32;100.00
78671;BME280;68277;52.724;6.516;2024-02-26T05:56:23;100418.34;;;3.06;100.00
78671;BME280;68277;52.724;6.516;2024-02-26T05:58:49;100389.59;;;2.84;100.00
78671;BME280;68277;52.724;6.516;2024-02-26T06:01:16;100483.78;;;3.36;100.00
78671;BME280;68277;52.724;6.516;2024-02-26T06:03:42;100407.91;;;2.90;100.00
78671;BME280;68277;52.724;6.516;2024-02-26T06:06:08;100416.63;;;2.92;100.00
78671;BME280;68277;52.724;6.516;2024-02-26T06:08:33;100406.16;;;2.84;100.00
78671;BME280;68277;52.724;6.516;2024-02-26T06:11:05;100434.03;;;3.02;100.00
78671;BME280;68277;52.724;6.516;2024-02-26T06:13:31;100477.66;;;3.19;100.00
78671;BME280;68277;52.724;6.516;2024-02-26T06:15:56;100493.34;;;3.25;100.00
78671;BME280;68277;52.724;6.516;2024-02-26T06:18:23;100477.66;;;3.15;100.00
78671;BME280;68277;52.724;6.516;2024-02-26T06:20:49;100473.28;;;3.12;100.00
78671;BME280;68277;52.724;6.516;2024-02-26T06:23:14;100444.50;;;2.94;100.00
78671;BME280;68277;52.724;6.516;2024-02-26T06:25:40;100434.00;;;2.84;100.00
78671;BME280;68277;52.724;6.516;2024-02-26T06:28:08;100390.44;;;2.61;100.00
78671;BME280;68277;52.724;6.516;2024-02-26T06:30:34;100372.09;;;2.48;100.00
78671;BME280;68277;52.724;6.516;2024-02-26T06:32:59;100440.13;;;2.90;100.00
78671;BME280;68277;52.724;6.516;2024-02-26T06:35:27;100421.81;;;2.75;100.00
78671;BME280;68277;52.724;6.516;2024-02-26T06:37:52;100499.44;;;3.26;100.00
78671;BME280;68277;52.724;6.516;2024-02-26T06:40:19;100412.22;;;2.74;100.00
78671;BME280;68277;52.724;6.516;2024-02-26T06:42:44;100508.16;;;3.14;100.00
78671;BME280;68277;52.724;6.516;2024-02-26T06:45:11;100529.09;;;3.32;100.00
78671;BME280;68277;52.724;6.516;2024-02-26T06:47:37;100504.66;;;3.18;100.00
78671;BME280;68277;52.724;6.516;2024-02-26T06:50:03;100454.91;;;2.84;100.00
78671;BME280;68277;52.724;6.516;2024-02-26T06:52:29;100520.34;;;3.17;100.00
78671;BME280;68277;52.724;6.516;2024-02-26T06:54:54;100461.88;;;2.78;100.00
78671;BME280;68277;52.724;6.516;2024-02-26T06:57:20;100472.38;;;2.89;100.00
78671;BME280;68277;52.724;6.516;2024-02-26T06:59:46;100550.91;;;3.33;100.00
78671;BME280;68277;52.724;6.516;2024-02-26T07:02:14;100481.97;;;2.98;100.00
78671;BME280;68277;52.724;6.516;2024-02-26T07:04:40;100544.78;;;3.28;100.00
78671;BME280;68277;52.724;6.516;2024-02-26T07:07:07;100543.03;;;3.24;100.00
78671;BME280;68277;52.724;6.516;2024-02-26T07:09:33;100566.59;;;3.37;100.00
78671;BME280;68277;52.724;6.516;2024-02-26T07:11:58;100562.25;;;3.38;100.00
78671;BME280;68277;52.724;6.516;2024-02-26T07:14:25;100534.31;;;3.22;100.00
78671;BME280;68277;52.724;6.516;2024-02-26T07:16:50;100543.91;;;3.27;100.00
78671;BME280;68277;52.724;6.516;2024-02-26T07:19:16;100568.34;;;3.38;100.00
78671;BME280;68277;52.724;6.516;2024-02-26T07:21:42;100537.78;;;3.25;100.00
78671;BME280;68277;52.724;6.516;2024-02-26T07:24:08;100482.84;;;2.94;100.00
78671;BME280;68277;52.724;6.516;2024-02-26T07:26:34;100505.50;;;3.07;100.00
78671;BME280;68277;52.724;6.516;2024-02-26T07:28:59;100514.25;;;3.06;100.00
78671;BME280;68277;52.724;6.516;2024-02-26T07:31:25;100481.06;;;2.88;100.00
78671;BME280;68277;52.724;6.516;2024-02-26T07:33:51;100501.13;;;2.98;100.00
78671;BME280;68277;52.724;6.516;2024-02-26T07:36:17;100518.59;;;3.14;100.00
78671;BME280;68277;52.724;6.516;2024-02-26T07:38:43;100558.72;;;3.34;100.00
78671;BME280;68277;52.724;6.516;2024-02-26T07:41:08;100530.81;;;3.15;100.00
78671;BME280;68277;52.724;6.516;2024-02-26T07:43:34;100505.50;;;3.01;100.00
78671;BME280;68277;52.724;6.516;2024-02-26T07:46:00;100547.38;;;3.28;100.00
78671;BME280;68277;52.724;6.516;2024-02-26T07:48:26;100584.94;;;3.45;100.00
78671;BME280;68277;52.724;6.516;2024-02-26T07:50:51;100538.66;;;3.27;100.00
78671;BME280;68277;52.724;6.516;2024-02-26T07:53:17;100562.25;;;3.36;100.00
78671;BME280;68277;52.724;6.516;2024-02-26T07:55:42;100562.22;;;3.35;100.00
78671;BME280;68277;52.724;6.516;2024-02-26T07:58:08;100563.13;;;3.40;100.00
78671;BME280;68277;52.724;6.516;2024-02-26T08:00:33;100569.22;;;3.36;100.00
78671;BME280;68277;52.724;6.516;2024-02-26T08:02:59;100536.03;;;3.17;100.00
78671;BME280;68277;52.724;6.516;2024-02-26T08:05:28;100605.91;;;3.56;100.00
78671;BME280;68277;52.724;6.516;2024-02-26T08:07:57;100544.78;;;3.23;100.00
78671;BME280;68277;52.724;6.516;2024-02-26T08:10:25;100603.25;;;3.59;100.00
78671;BME280;68277;52.724;6.516;2024-02-26T08:12:51;100590.16;;;3.46;100.00
78671;BME280;68277;52.724;6.516;2024-02-26T08:15:26;100563.09;;;3.37;100.00
78671;BME280;68277;52.724;6.516;2024-02-26T08:17:52;100535.19;;;3.19;100.00
78671;BME280;68277;52.724;6.516;2024-02-26T08:20:17;100608.50;;;3.68;100.00
78671;BME280;68277;52.724;6.516;2024-02-26T08:22:45;100511.63;;;3.07;100.00
78671;BME280;68277;52.724;6.516;2024-02-26T08:25:11;100498.53;;;2.98;100.00
78671;BME280;68277;52.724;6.516;2024-02-26T08:27:36;100546.53;;;3.33;100.00
78671;BME280;68277;52.724;6.516;2024-02-26T08:30:02;100514.25;;;3.16;100.00
78671;BME280;68277;52.724;6.516;2024-02-26T08:32:28;100576.22;;;3.51;100.00
78671;BME280;68277;52.724;6.516;2024-02-26T08:34:54;100509.00;;;3.12;100.00
78671;BME280;68277;52.724;6.516;2024-02-26T08:37:19;100584.94;;;3.48;100.00
78671;BME280;68277;52.724;6.516;2024-02-26T08:39:45;100609.41;;;3.73;100.00
78671;BME280;68277;52.724;6.516;2024-02-26T08:42:11;100570.09;;;3.44;100.00
78671;BME280;68277;52.724;6.516;2024-02-26T08:44:36;100612.88;;;3.73;100.00
78671;BME280;68277;52.724;6.516;2024-02-26T08:47:02;100604.16;;;3.68;100.00
78671;BME280;68277;52.724;6.516;2024-02-26T08:49:27;100614.66;;;3.79;100.00
78671;BME280;68277;52.724;6.516;2024-02-26T08:51:53;100600.66;;;3.72;100.00
78671;BME280;68277;52.724;6.516;2024-02-26T08:54:18;100611.16;;;3.81;100.00
78671;BME280;68277;52.724;6.516;2024-02-26T08:56:44;100613.75;;;3.75;100.00
78671;BME280;68277;52.724;6.516;2024-02-26T08:59:09;100619.00;;;3.80;100.00
78671;BME280;68277;52.724;6.516;2024-02-26T09:01:35;100624.25;;;3.84;100.00
78671;BME280;68277;52.724;6.516;2024-02-26T09:04:00;100623.41;;;3.84;100.00
78671;BME280;68277;52.724;6.516;2024-02-26T09:06:26;100635.59;;;3.89;100.00
78671;BME280;68277;52.724;6.516;2024-02-26T09:08:51;100657.44;;;4.05;100.00
78671;BME280;68277;52.724;6.516;2024-02-26T09:11:17;100637.34;;;3.95;100.00
78671;BME280;68277;52.724;6.516;2024-02-26T09:13:42;100657.44;;;4.06;100.00
78671;BME280;68277;52.724;6.516;2024-02-26T09:16:08;100633.00;;;3.95;100.00
78671;BME280;68277;52.724;6.516;2024-02-26T09:18:33;100659.19;;;4.06;100.00
78671;BME280;68277;52.724;6.516;2024-02-26T09:20:59;100627.75;;;3.92;100.00
78671;BME280;68277;52.724;6.516;2024-02-26T09:23:24;100660.03;;;4.08;100.00
78671;BME280;68277;52.724;6.516;2024-02-26T09:25:50;100690.63;;;4.18;100.00
78671;BME280;68277;52.724;6.516;2024-02-26T09:28:15;100632.13;;;3.86;100.00
78671;BME280;68277;52.724;6.516;2024-02-26T09:30:44;100639.97;;;3.87;100.00
78671;BME280;68277;52.724;6.516;2024-02-26T09:33:10;100687.13;;;4.18;100.00
78671;BME280;68277;52.724;6.516;2024-02-26T09:35:36;100672.28;;;4.12;100.00
78671;BME280;68277;52.724;6.516;2024-02-26T09:38:02;100657.44;;;4.05;100.00
78671;BME280;68277;52.724;6.516;2024-02-26T09:40:27;100662.66;;;4.08;100.00
78671;BME280;68277;52.724;6.516;2024-02-26T09:43:00;100646.97;;;4.02;100.00
78671;BME280;68277;52.724;6.516;2024-02-26T09:45:28;100692.34;;;4.27;100.00
78671;BME280;68277;52.724;6.516;2024-02-26T09:47:55;100691.50;;;4.29;100.00
78671;BME280;68277;52.724;6.516;2024-02-26T09:50:22;100700.22;;;4.31;100.00
78671;BME280;68277;52.724;6.516;2024-02-26T09:52:51;100618.13;;;3.82;100.00
78671;BME280;68277;52.724;6.516;2024-02-26T09:55:17;100665.31;;;4.19;100.00
78671;BME280;68277;52.724;6.516;2024-02-26T09:57:46;100656.59;;;4.12;100.00
78671;BME280;68277;52.724;6.516;2024-02-26T10:00:19;100713.34;;;4.45;100.00
78671;BME280;68277;52.724;6.516;2024-02-26T10:02:46;100674.91;;;4.23;100.00
78671;BME280;68277;52.724;6.516;2024-02-26T10:05:18;100687.16;;;4.36;100.00
78671;BME280;68277;52.724;6.516;2024-02-26T10:07:48;100722.94;;;4.53;100.00
78671;BME280;68277;52.724;6.516;2024-02-26T10:10:14;100693.25;;;4.32;100.00
78671;BME280;68277;52.724;6.516;2024-02-26T10:12:40;100706.34;;;4.36;100.00
78671;BME280;68277;52.724;6.516;2024-02-26T10:15:06;100710.72;;;4.48;100.00
78671;BME280;68277;52.724;6.516;2024-02-26T10:17:32;100648.72;;;4.12;100.00
78671;BME280;68277;52.724;6.516;2024-02-26T10:20:16;100725.56;;;4.58;100.00
78671;BME280;68277;52.724;6.516;2024-02-26T10:22:42;100631.25;;;4.09;100.00
78671;BME280;68277;52.724;6.516;2024-02-26T10:25:08;100668.78;;;4.27;100.00
78671;BME280;68277;52.724;6.516;2024-02-26T10:27:34;100717.72;;;4.53;100.00
78671;BME280;68277;52.724;6.516;2024-02-26T10:30:04;100752.66;;;4.75;100.00
78671;BME280;68277;52.724;6.516;2024-02-26T10:32:31;100764.91;;;4.77;100.00
78671;BME280;68277;52.724;6.516;2024-02-26T10:34:57;100773.63;;;4.79;100.00
78671;BME280;68277;52.724;6.516;2024-02-26T10:37:23;100734.31;;;4.57;100.00
78671;BME280;68277;52.724;6.516;2024-02-26T10:39:50;100760.53;;;4.70;100.00
78671;BME280;68277;52.724;6.516;2024-02-26T10:42:16;100745.66;;;4.65;100.00
78671;BME280;68277;52.724;6.516;2024-02-26T10:44:45;100746.53;;;4.70;100.00
78671;BME280;68277;52.724;6.516;2024-02-26T10:47:11;100755.28;;;4.75;100.00
78671;BME280;68277;52.724;6.516;2024-02-26T10:49:38;100718.56;;;4.60;100.00
78671;BME280;68277;52.724;6.516;2024-02-26T10:52:04;100745.66;;;4.78;100.00
78671;BME280;68277;52.724;6.516;2024-02-26T10:54:32;100798.94;;;5.14;100.00
78671;BME280;68277;52.724;6.516;2024-02-26T10:56:59;100779.72;;;5.03;100.00
78671;BME280;68277;52.724;6.516;2024-02-26T10:59:26;100707.22;;;4.59;100.00
78671;BME280;68277;52.724;6.516;2024-02-26T11:01:52;100748.28;;;4.72;100.00
78671;BME280;68277;52.724;6.516;2024-02-26T11:04:20;100797.19;;;4.95;100.00
78671;BME280;68277;52.724;6.516;2024-02-26T11:06:47;100674.91;;;4.29;100.00
78671;BME280;68277;52.724;6.516;2024-02-26T11:09:15;100744.78;;;4.67;100.00
78671;BME280;68277;52.724;6.516;2024-02-26T11:11:42;100786.72;;;4.90;100.00
78671;BME280;68277;52.724;6.516;2024-02-26T11:14:10;100775.38;;;4.82;100.00
78671;BME280;68277;52.724;6.516;2024-02-26T11:16:37;100775.38;;;4.79;100.00
78671;BME280;68277;52.724;6.516;2024-02-26T11:19:06;100690.63;;;4.35;100.00
78671;BME280;68277;52.724;6.516;2024-02-26T11:21:34;100805.97;;;5.10;100.00
78671;BME280;68277;52.724;6.516;2024-02-26T11:24:11;100778.84;;;4.95;100.00
78671;BME280;68277;52.724;6.516;2024-02-26T11:27:04;100832.16;;;5.24;100.00
78671;BME280;68277;52.724;6.516;2024-02-26T11:29:42;100802.47;;;5.08;100.00
78671;BME280;68277;52.724;6.516;2024-02-26T11:32:10;100748.25;;;4.83;100.00
78671;BME280;68277;52.724;6.516;2024-02-26T11:34:37;100777.13;;;4.97;100.00
78671;BME280;68277;52.724;6.516;2024-02-26T11:37:10;100793.69;;;5.09;100.00
78671;BME280;68277;52.724;6.516;2024-02-26T11:39:39;100836.53;;;5.34;100.00
78671;BME280;68277;52.724;6.516;2024-02-26T11:42:07;100847.03;;;5.32;100.00
78671;BME280;68277;52.724;6.516;2024-02-26T11:44:34;100798.09;;;5.06;100.00
78671;BME280;68277;52.724;6.516;2024-02-26T11:47:22;100804.19;;;5.09;100.00
78671;BME280;68277;52.724;6.516;2024-02-26T11:49:48;100796.34;;;5.11;100.00
78671;BME280;68277;52.724;6.516;2024-02-26T11:52:15;100814.69;;;5.21;100.00
78671;BME280;68277;52.724;6.516;2024-02-26T11:54:56;100752.66;;;4.89;100.00
78671;BME280;68277;52.724;6.516;2024-02-26T11:57:40;100849.66;;;5.38;100.00
78671;BME280;68277;52.724;6.516;2024-02-26T12:02:44;100850.50;;;5.37;100.00
78671;BME280;68277;52.724;6.516;2024-02-26T12:05:23;100846.13;;;5.39;100.00
78671;BME280;68277;52.724;6.516;2024-02-26T12:07:55;100857.53;;;5.41;100.00
78671;BME280;68277;52.724;6.516;2024-02-26T12:10:25;100858.38;;;5.42;100.00
78671;BME280;68277;52.724;6.516;2024-02-26T12:13:13;100845.28;;;5.34;100.00
78671;BME280;68277;52.724;6.516;2024-02-26T12:15:55;100701.97;;;4.50;100.00
78671;BME280;68277;52.724;6.516;2024-02-26T12:18:22;100856.63;;;5.39;100.00
78671;BME280;68277;52.724;6.516;2024-02-26T12:21:08;100787.59;;;4.95;100.00
78671;BME280;68277;52.724;6.516;2024-02-26T12:23:38;100817.31;;;5.09;100.00
78671;BME280;68277;52.724;6.516;2024-02-26T12:26:04;100828.69;;;5.22;100.00
78671;BME280;68277;52.724;6.516;2024-02-26T12:28:32;100770.13;;;4.80;100.00
78671;BME280;68277;52.724;6.516;2024-02-26T12:30:58;100741.28;;;4.67;100.00
78671;BME280;68277;52.724;6.516;2024-02-26T12:33:25;100728.19;;;4.61;100.00
78671;BME280;68277;52.724;6.516;2024-02-26T12:35:53;100870.66;;;5.46;100.00
78671;BME280;68277;52.724;6.516;2024-02-26T12:38:18;100837.41;;;5.25;100.00
78671;BME280;68277;52.724;6.516;2024-02-26T12:40:49;100887.25;;;5.48;100.00
78671;BME280;68277;52.724;6.516;2024-02-26T12:43:17;100818.22;;;5.16;100.00
78671;BME280;68277;52.724;6.516;2024-02-26T12:45:43;100801.59;;;5.08;100.00
78671;BME280;68277;52.724;6.516;2024-02-26T12:48:12;100858.41;;;5.34;100.00
78671;BME280;68277;52.724;6.516;2024-02-26T12:50:38;100819.94;;;5.09;100.00
78671;BME280;68277;52.724;6.516;2024-02-26T12:53:05;100831.31;;;5.16;100.00
78671;BME280;68277;52.724;6.516;2024-02-26T12:55:33;100833.06;;;5.15;100.00
78671;BME280;68277;52.724;6.516;2024-02-26T12:58:00;100840.91;;;5.17;100.00